首页
METAR-TAF:

METAR-TAF

机场 :

Gökçeada, 土耳其

纬度: 40-12-04N, 经度: 25-52-56E, 海拔: 22米

METAR: 丢失

时间: 05:49 (02:49 UTC)

预报

该预报发布于1小时和9分钟前的01:40 UTC
预报有效从01日的 03点(UTC)到 01日的 12点(UTC)
风速2节,风向多变
能见度10公里或以上
散云层高于3500英尺
多云层高于10000英尺
小阵雨
短暂存在
从 01日的 06点(UTC)到 01日的 10点(UTC)
少量云层高于2500英尺, 积雨云.
多云层高于3000英尺
雷暴, 小雨

TAF: LTFK 010140Z 0103/0112 VRB02KT 9999 -SHRA SCT035 BKN100 TEMPO 0106/0110 -TSRA FEW025CB BKN030

超过4000个机场的气象观测和天气预报(METAR&TAF报告)。

可查询的气象台以黄色和红色小点在地图上表示。

将鼠标移到小点上方,可查看气象台名称。

然后点击查看天气观测和预报。

如需切换地图:点击带黑十字的绿色按钮放大地图;点击带横线的绿色按钮缩小地图;或者点击绿色箭头查看邻近地区的地图。


METAR-TAF: